Time;durP1;ratioP1;P1;durP2;ratioP2;P2;SDS_P1;SDS_P2;PMS_P1;PMS_P2;Temp;Humidity;BMP_temperature;BMP_pressure;BME280_temperature;BME280_humidity;BME280_pressure;Samples;Min_cycle;Max_cycle;Signal;HPM_P1;HPM_P2
2021/10/27 00:04:05;;;;;;;45.80;25.30;;;;;;;5.45;74.83;99484.45;235840;1198;24136;-70
2021/10/27 00:09:09;;;;;;;43.80;24.80;;;;;;;5.40;75.00;99482.02;235838;1198;24085;-71
2021/10/27 00:14:11;;;;;;;39.00;24.20;;;;;;;5.38;75.09;99488.92;236077;1198;26259;-72
2021/10/27 00:19:27;;;;;;;40.30;24.30;;;;;;;5.36;75.36;99491.88;235906;1193;24165;-70
2021/10/27 00:24:31;;;;;;;42.90;24.50;;;;;;;5.34;75.53;99497.63;235932;1198;24077;-73
2021/10/27 00:29:34;;;;;;;38.60;24.60;;;;;;;5.38;75.82;99505.96;235826;1197;22845;-71
2021/10/27 00:34:38;;;;;;;41.40;23.10;;;;;;;5.49;75.56;99511.42;235880;1197;24200;-72
2021/10/27 00:39:41;;;;;;;39.70;23.90;;;;;;;5.60;75.65;99512.85;235899;1197;24059;-70
2021/10/27 00:44:44;;;;;;;39.40;23.10;;;;;;;5.71;75.72;99510.44;235806;1198;24169;-69
2021/10/27 00:49:48;;;;;;;41.40;24.80;;;;;;;5.79;75.42;99510.29;235810;1175;24040;-70
2021/10/27 00:54:51;;;;;;;38.80;24.60;;;;;;;5.88;75.36;99510.48;235959;1198;22678;-72
2021/10/27 00:59:56;;;;;;;39.10;22.40;;;;;;;5.89;75.46;99503.37;235852;1198;24091;-72
2021/10/27 01:04:59;;;;;;;39.80;24.80;;;;;;;5.81;75.06;99509.79;235785;1198;24866;-71
2021/10/27 01:10:02;;;;;;;36.20;23.30;;;;;;;5.70;75.01;99500.02;235824;1198;22481;-72
2021/10/27 01:15:07;;;;;;;40.70;25.50;;;;;;;5.58;75.09;99501.34;235775;1198;23823;-72
2021/10/27 01:20:10;;;;;;;36.10;22.40;;;;;;;5.50;75.50;99501.77;235882;1184;24075;-72
2021/10/27 01:25:13;;;;;;;45.20;25.80;;;;;;;5.38;75.43;99504.30;235677;1184;24187;-72
2021/10/27 01:30:20;;;;;;;42.80;25.30;;;;;;;5.27;75.42;99496.13;235774;1190;22426;-70
2021/10/27 01:35:23;;;;;;;42.80;24.70;;;;;;;5.18;75.91;99499.83;236002;1193;22446;-73
2021/10/27 01:40:26;;;;;;;39.80;24.40;;;;;;;5.09;75.97;99502.77;235834;1190;22557;-70
2021/10/27 01:45:31;;;;;;;42.30;26.10;;;;;;;5.00;76.21;99500.79;235859;1198;24046;-72
2021/10/27 01:50:34;;;;;;;37.90;25.10;;;;;;;4.93;76.40;99502.81;235953;1193;22420;-69
2021/10/27 01:55:37;;;;;;;36.30;24.90;;;;;;;4.91;76.69;99507.59;236005;1198;24174;-70
2021/10/27 02:00:40;;;;;;;40.60;24.70;;;;;;;4.88;76.87;99506.80;235794;1198;22440;-70
2021/10/27 02:05:43;;;;;;;35.80;23.30;;;;;;;4.85;76.85;99506.50;235886;1197;22662;-72
2021/10/27 02:10:56;;;;;;;37.00;23.80;;;;;;;4.81;77.02;99507.43;235800;1198;24018;-70
2021/10/27 02:16:28;;;;;;;38.50;24.80;;;;;;;4.78;77.23;99518.84;235790;1197;25196;-71
2021/10/27 02:21:37;;;;;;;39.80;25.40;;;;;;;4.77;77.24;99525.25;235949;1197;24204;-70
2021/10/27 02:26:51;;;;;;;33.30;22.70;;;;;;;4.77;77.33;99517.14;235789;1197;25318;-71
2021/10/27 02:31:54;;;;;;;37.50;25.10;;;;;;;4.76;77.34;99521.23;235855;1190;24028;-72
2021/10/27 02:37:15;;;;;;;37.60;25.50;;;;;;;4.73;77.30;99521.91;235888;1198;22433;-71
2021/10/27 02:42:36;;;;;;;43.90;27.30;;;;;;;4.74;77.66;99519.77;235912;1198;22434;-74
2021/10/27 02:47:41;;;;;;;43.50;26.60;;;;;;;4.79;77.74;99523.48;236050;1198;22552;-70
2021/10/27 02:52:45;;;;;;;34.00;21.50;;;;;;;4.88;77.73;99527.92;235937;1197;22433;-70
2021/10/27 02:57:47;;;;;;;35.50;23.90;;;;;;;5.02;77.77;99525.66;235761;1198;23106;-72
2021/10/27 03:02:52;;;;;;;38.40;23.20;;;;;;;5.15;77.91;99531.30;235879;1190;22430;-72
2021/10/27 03:07:55;;;;;;;46.30;28.50;;;;;;;5.29;77.83;99533.63;236084;1190;24114;-72
2021/10/27 03:12:58;;;;;;;39.60;25.00;;;;;;;5.44;77.72;99534.29;235860;1198;22487;-70
2021/10/27 03:18:02;;;;;;;32.80;23.00;;;;;;;5.58;77.65;99534.98;235781;1198;24032;-71
2021/10/27 03:23:05;;;;;;;39.70;24.40;;;;;;;5.70;77.40;99538.08;235811;1198;24704;-71
2021/10/27 03:28:07;;;;;;;38.50;24.60;;;;;;;5.76;77.39;99541.17;235815;1197;22445;-71
2021/10/27 03:33:10;;;;;;;37.50;24.00;;;;;;;5.82;77.34;99542.83;235795;1190;25204;-72
2021/10/27 03:38:21;;;;;;;35.80;23.80;;;;;;;5.86;77.07;99544.34;235852;1198;24104;-70
2021/10/27 03:43:39;;;;;;;38.80;24.60;;;;;;;5.87;77.10;99544.83;235978;1198;24071;-72
2021/10/27 03:48:42;;;;;;;34.50;23.10;;;;;;;5.82;76.57;99544.63;235831;1198;24001;-73
2021/10/27 03:53:45;;;;;;;39.40;25.50;;;;;;;5.73;76.50;99556.15;235935;1190;23360;-71
2021/10/27 03:58:49;;;;;;;38.20;24.00;;;;;;;5.60;76.81;99557.35;235798;1177;24027;-72
2021/10/27 04:04:04;;;;;;;40.10;25.50;;;;;;;5.43;76.88;99551.96;235836;1198;25242;-70
2021/10/27 04:09:07;;;;;;;44.80;27.80;;;;;;;5.28;77.05;99557.55;235848;1198;24078;-72
2021/10/27 04:14:11;;;;;;;38.20;24.80;;;;;;;5.14;76.99;99557.85;235818;1198;22445;-72
2021/10/27 04:19:14;;;;;;;38.20;25.60;;;;;;;5.00;77.28;99564.84;235733;1198;24200;-70
2021/10/27 04:24:18;;;;;;;42.20;27.80;;;;;;;4.88;77.24;99571.75;235738;1198;22559;-71
2021/10/27 04:29:24;;;;;;;39.50;27.10;;;;;;;4.80;77.59;99580.38;235920;1198;24124;-72
2021/10/27 04:34:26;;;;;;;39.10;25.00;;;;;;;4.76;77.82;99583.93;235777;1198;22504;-72
2021/10/27 04:39:42;;;;;;;38.10;25.00;;;;;;;4.69;78.03;99581.27;235849;1197;24044;-72
2021/10/27 04:44:48;;;;;;;44.10;26.10;;;;;;;4.60;78.17;99581.23;236556;1192;24050;-73
2021/10/27 04:49:51;;;;;;;46.90;28.20;;;;;;;4.52;78.17;99582.31;235785;1198;24944;-70
2021/10/27 04:54:54;;;;;;;44.20;26.10;;;;;;;4.46;78.23;99580.14;236039;1198;25374;-70
2021/10/27 04:59:58;;;;;;;41.30;25.20;;;;;;;4.41;78.50;99582.42;235967;1198;22633;-70
2021/10/27 05:05:01;;;;;;;44.10;25.90;;;;;;;4.38;78.52;99583.66;235768;1198;22440;-72
2021/10/27 05:10:04;;;;;;;48.20;27.50;;;;;;;4.34;78.79;99581.70;235991;1198;24053;-70
2021/10/27 05:15:19;;;;;;;44.80;27.00;;;;;;;4.32;78.95;99586.70;235730;1198;24514;-70
2021/10/27 05:20:43;;;;;;;41.10;25.50;;;;;;;4.31;78.88;99593.52;235777;1190;22641;-70
2021/10/27 05:25:48;;;;;;;42.80;26.10;;;;;;;4.25;79.10;99594.86;235845;1198;24023;-72
2021/10/27 05:30:50;;;;;;;48.10;28.30;;;;;;;4.21;79.09;99597.10;235863;1198;22440;-73
2021/10/27 05:35:53;;;;;;;45.40;28.40;;;;;;;4.21;79.20;99604.57;235842;1183;24178;-71
2021/10/27 05:40:56;;;;;;;47.50;30.00;;;;;;;4.23;79.15;99607.92;235899;1191;24085;-71
2021/10/27 05:45:58;;;;;;;47.50;26.70;;;;;;;4.23;79.23;99618.73;236089;1190;22467;-70
2021/10/27 05:56:07;;;;;;;49.10;28.40;;;;;;;4.28;79.71;99624.91;236124;1197;24166;-71
2021/10/27 06:01:09;;;;;;;48.50;29.00;;;;;;;4.34;79.73;99628.55;236426;1190;24819;-70
2021/10/27 06:06:12;;;;;;;46.20;27.20;;;;;;;4.41;79.63;99638.39;236241;1198;22565;-72
2021/10/27 06:11:15;;;;;;;42.60;27.10;;;;;;;4.51;79.88;99639.18;236557;1191;25301;-74
2021/10/27 06:16:21;;;;;;;42.80;26.70;;;;;;;4.64;79.91;99636.75;236527;1198;22455;-71
2021/10/27 06:21:24;;;;;;;43.10;26.70;;;;;;;4.75;79.86;99638.54;236949;1190;22453;-71
2021/10/27 06:26:32;;;;;;;45.30;25.50;;;;;;;4.87;79.91;99645.63;237292;1197;22450;-72
2021/10/27 06:31:43;;;;;;;42.10;25.30;;;;;;;5.07;79.90;99648.48;242459;1183;22320;-73
2021/10/27 06:47:12;;;;;;;45.10;28.20;;;;;;;5.65;79.23;99640.68;242372;1197;22278;-74
2021/10/27 06:52:15;;;;;;;42.80;27.70;;;;;;;5.87;78.87;99641.77;241919;1190;24731;-73
2021/10/27 06:57:23;;;;;;;42.10;26.60;;;;;;;6.24;78.86;99641.67;239243;1190;22573;-75
2021/10/27 07:18:35;;;;;;;42.00;24.80;;;;;;;6.83;77.70;99650.76;236352;1190;24053;-74
2021/10/27 07:23:47;;;;;;;38.40;23.30;;;;;;;7.01;77.46;99657.64;236399;1190;25067;-71
2021/10/27 07:29:09;;;;;;;37.10;23.50;;;;;;;7.25;77.12;99656.88;236092;1190;24139;-75
2021/10/27 07:34:16;;;;;;;37.70;23.50;;;;;;;7.44;76.97;99663.23;236179;1197;22872;-72
2021/10/27 07:44:42;;;;;;;35.30;24.00;;;;;;;7.84;76.35;99663.11;236283;1190;25306;-74
2021/10/27 07:49:51;;;;;;;35.40;21.60;;;;;;;8.03;76.18;99656.66;236531;1198;22534;-72
2021/10/27 07:54:54;;;;;;;35.60;23.60;;;;;;;8.19;75.46;99657.79;236440;1191;24030;-74
2021/10/27 08:00:07;;;;;;;26.00;19.40;;;;;;;8.34;75.48;99663.39;236303;1190;24044;-73
2021/10/27 08:05:32;;;;;;;30.60;20.20;;;;;;;8.55;75.11;99664.90;236527;1190;25160;-74
2021/10/27 08:10:35;;;;;;;36.70;21.70;;;;;;;8.76;74.53;99666.80;236374;1183;22443;-71
2021/10/27 08:15:43;;;;;;;29.70;19.60;;;;;;;8.94;74.20;99666.10;236208;1197;22409;-71
2021/10/27 08:20:49;;;;;;;28.60;19.70;;;;;;;9.18;74.19;99665.15;236453;1190;24075;-72
2021/10/27 08:25:56;;;;;;;29.40;21.30;;;;;;;9.42;73.60;99667.55;236474;1190;24053;-71
2021/10/27 08:31:08;;;;;;;26.20;17.50;;;;;;;9.63;73.42;99664.88;236535;1190;24241;-73
2021/10/27 08:36:10;;;;;;;25.70;18.50;;;;;;;9.86;73.19;99671.03;236383;1174;24071;-72
2021/10/27 08:41:17;;;;;;;23.20;17.00;;;;;;;10.13;72.96;99670.80;236022;1197;24057;-74
2021/10/27 08:46:21;;;;;;;26.50;16.50;;;;;;;10.34;72.05;99669.91;236343;1190;24206;-74
2021/10/27 08:51:37;;;;;;;25.10;18.00;;;;;;;10.52;71.60;99673.17;236063;1193;24178;-72
2021/10/27 08:57:05;;;;;;;27.40;18.40;;;;;;;10.74;71.08;99678.46;236641;1190;25324;-71
2021/10/27 10:06:49;;;;;;;23.20;15.80;;;;;;;12.35;65.18;99654.59;236129;1193;22478;-72
2021/10/27 10:11:54;;;;;;;21.20;16.00;;;;;;;12.48;64.87;99658.48;236233;1190;24144;-72
2021/10/27 10:17:03;;;;;;;22.00;16.90;;;;;;;12.65;64.72;99656.44;236314;1190;24034;-71
2021/10/27 10:22:32;;;;;;;20.50;14.60;;;;;;;12.86;64.48;99660.85;237168;1197;24037;-72
2021/10/27 10:27:38;;;;;;;16.90;12.60;;;;;;;13.10;63.93;99659.83;238718;1197;24057;-70
2021/10/27 10:32:43;;;;;;;15.90;12.70;;;;;;;13.27;63.43;99656.88;236342;1192;22429;-71
2021/10/27 11:00:08;;;;;;;17.50;12.00;;;;;;;14.02;60.43;99637.09;237570;1197;26148;-71
2021/10/27 11:27:31;;;;;;;16.20;11.90;;;;;;;14.26;59.11;99634.48;237058;1190;23682;-71
2021/10/27 11:38:15;;;;;;;14.50;11.50;;;;;;;14.24;58.48;99630.16;236297;1197;24029;-71
2021/10/27 11:43:31;;;;;;;16.60;12.10;;;;;;;14.20;58.33;99625.26;236040;1198;24040;-72
2021/10/27 11:53:45;;;;;;;15.70;12.30;;;;;;;14.23;58.93;99620.84;236337;1197;24082;-71
2021/10/27 11:58:56;;;;;;;15.30;11.90;;;;;;;14.43;59.37;99616.86;236067;1198;25319;-72
2021/10/27 12:03:59;;;;;;;;;;;;;;;14.61;58.71;99616.13;236014;1198;24059;-71
2021/10/27 12:19:36;;;;;;;13.00;8.60;;;;;;;14.23;56.93;99613.08;236752;1198;22466;-73
2021/10/27 12:24:40;;;;;;;13.70;9.10;;;;;;;14.10;57.07;99609.86;235968;1193;25171;-73
2021/10/27 12:29:43;;;;;;;10.90;8.50;;;;;;;14.00;57.19;99604.77;236197;1190;22548;-73
2021/10/27 12:34:49;;;;;;;14.30;9.40;;;;;;;13.96;57.61;99602.30;236173;1190;24178;-72
2021/10/27 12:39:52;;;;;;;15.00;11.20;;;;;;;13.90;57.63;99596.08;236106;1190;25047;-71
2021/10/27 12:44:54;;;;;;;14.60;10.90;;;;;;;13.92;58.15;99595.90;236152;1197;24085;-73
2021/10/27 12:50:09;;;;;;;16.10;12.20;;;;;;;13.99;58.03;99598.44;236182;1190;24079;-73
2021/10/27 12:55:13;;;;;;;17.10;11.60;;;;;;;14.07;58.18;99594.70;237085;1198;22437;-73
2021/10/27 13:01:28;;;;;;;19.60;12.00;;;;;;;14.22;58.04;99598.59;236571;1196;22476;-73
2021/10/27 13:06:14;;;;;;;13.90;10.00;;;;;;;14.32;57.72;99597.96;236394;1190;22554;-73
2021/10/27 13:22:10;;;;;;;17.90;12.40;;;;;;;14.30;57.95;99591.48;236239;1197;24111;-73
2021/10/27 13:32:56;;;;;;;18.40;13.30;;;;;;;14.27;58.59;99587.85;236305;1197;22562;-74
2021/10/27 13:38:16;;;;;;;16.30;12.10;;;;;;;14.24;58.40;99588.45;236087;1190;25409;-74
2021/10/27 13:43:30;;;;;;;19.40;13.20;;;;;;;14.17;58.66;99587.84;236820;1197;24122;-72
2021/10/27 14:10:13;;;;;;;38.40;15.30;;;;;;;13.74;59.73;99580.73;236451;1190;23020;-72
2021/10/27 15:51:55;;;;;;;74.40;45.70;;;;;;;11.21;67.14;99575.18;235531;1198;25308;-70
2021/10/27 15:57:03;;;;;;;29.00;20.00;;;;;;;11.12;66.94;99581.00;235862;1190;22428;-72
2021/10/27 16:02:06;;;;;;;25.90;17.20;;;;;;;10.92;66.88;99581.58;235929;1190;24011;-72
2021/10/27 16:07:10;;;;;;;24.00;15.20;;;;;;;10.71;67.37;99584.86;236062;1190;24040;-71
2021/10/27 16:12:12;;;;;;;22.00;14.30;;;;;;;10.56;67.61;99595.27;236026;1197;24162;-72
2021/10/27 16:17:16;;;;;;;21.60;14.20;;;;;;;10.44;68.09;99591.99;236069;1177;24169;-72
2021/10/27 16:22:20;;;;;;;23.00;14.40;;;;;;;10.32;68.30;99592.17;235876;1184;24082;-71
2021/10/27 16:27:25;;;;;;;22.40;14.50;;;;;;;10.19;68.72;99591.34;235680;1194;24108;-70
2021/10/27 16:32:28;;;;;;;32.00;20.70;;;;;;;10.08;69.12;99588.34;235973;1197;25133;-70
2021/10/27 16:37:31;;;;;;;31.80;19.80;;;;;;;10.03;69.46;99589.98;235875;1190;22443;-71
2021/10/27 16:42:37;;;;;;;36.60;22.20;;;;;;;9.92;69.43;99599.96;235942;1197;24904;-71
2021/10/27 16:47:39;;;;;;;47.40;26.70;;;;;;;9.77;69.74;99601.05;235918;1198;22455;-73
2021/10/27 16:52:58;;;;;;;59.10;33.70;;;;;;;9.66;69.88;99603.29;236155;1197;24052;-71
2021/10/27 16:58:26;;;;;;;59.20;33.30;;;;;;;9.56;70.33;99604.72;235931;1198;24012;-73
2021/10/27 17:03:30;;;;;;;55.30;31.00;;;;;;;9.45;70.60;99604.39;236004;1174;24079;-70
2021/10/27 17:08:32;;;;;;;50.60;29.00;;;;;;;9.34;70.92;99607.23;236020;1182;22437;-72
2021/10/27 17:13:55;;;;;;;53.70;32.60;;;;;;;9.24;71.26;99608.94;235890;1190;24244;-71
2021/10/27 17:18:59;;;;;;;55.50;32.30;;;;;;;9.13;71.52;99605.77;235947;1190;24232;-71
2021/10/27 17:24:02;;;;;;;52.00;30.40;;;;;;;9.03;71.79;99608.21;236099;1198;22432;-72
2021/10/27 17:29:04;;;;;;;49.80;28.40;;;;;;;8.96;72.19;99612.30;236986;1198;24528;-72
2021/10/27 17:34:07;;;;;;;44.90;25.90;;;;;;;8.90;72.55;99609.94;236082;1190;25135;-72
2021/10/27 17:39:10;;;;;;;50.90;28.50;;;;;;;8.81;72.86;99604.27;236024;1198;24564;-70
2021/10/27 17:44:13;;;;;;;55.20;30.60;;;;;;;8.73;73.06;99598.93;235917;1184;22456;-70
2021/10/27 18:00:07;;;;;;;62.10;35.70;;;;;;;8.55;74.17;99600.22;235766;1193;22428;-70
2021/10/27 18:05:09;;;;;;;59.40;33.80;;;;;;;8.48;74.24;99600.59;235790;1198;22460;-70
2021/10/27 18:10:17;;;;;;;61.70;34.10;;;;;;;8.43;74.28;99601.53;235973;1197;24556;-75
2021/10/27 18:15:21;;;;;;;67.80;37.70;;;;;;;8.39;74.43;99599.85;235851;1174;25161;-72
2021/10/27 18:20:27;;;;;;;59.10;33.20;;;;;;;8.36;74.64;99601.31;235835;1197;24127;-72
2021/10/27 18:26:04;;;;;;;64.80;34.50;;;;;;;8.32;74.80;99602.71;235885;1198;26423;-70
2021/10/27 18:41:53;;;;;;;44.20;23.50;;;;;;;8.24;75.72;99608.25;235875;1197;24053;-72
2021/10/27 18:46:50;;;;;;;38.80;23.10;;;;;;;8.31;76.15;99613.70;235979;1184;24158;-72
2021/10/27 18:52:43;;;;;;;34.10;21.90;;;;;;;8.37;76.32;99620.23;236103;1190;22454;-73
2021/10/27 18:57:29;;;;;;;34.00;19.50;;;;;;;8.41;76.21;99617.48;235818;1197;24069;-73
2021/10/27 19:02:46;;;;;;;33.70;19.10;;;;;;;8.43;76.15;99618.10;236100;1190;24061;-73
2021/10/27 19:18:17;;;;;;;33.80;21.10;;;;;;;8.46;75.91;99631.81;235824;1197;24197;-71
2021/10/27 19:23:21;;;;;;;32.90;20.30;;;;;;;8.43;75.85;99628.70;235784;1198;24148;-70
2021/10/27 20:54:17;;;;;;;53.10;30.90;;;;;;;7.54;78.14;99667.63;235897;1197;26324;-72
2021/10/27 21:15:44;;;;;;;50.30;30.40;;;;;;;7.43;77.87;99665.19;235761;1183;24079;-71
2021/10/27 21:20:47;;;;;;;57.90;31.60;;;;;;;7.37;77.97;99670.05;235875;1190;24778;-72
2021/10/27 21:25:50;;;;;;;59.90;32.50;;;;;;;7.34;77.91;99674.66;235709;1198;24557;-70
2021/10/27 21:31:04;;;;;;;55.30;30.40;;;;;;;7.31;77.81;99674.57;236085;1197;22443;-71
2021/10/27 21:47:22;;;;;;;47.20;29.30;;;;;;;7.18;77.65;99668.61;235770;1197;23673;-69
2021/10/27 21:52:25;;;;;;;50.20;28.50;;;;;;;7.13;78.04;99657.77;235812;1182;24148;-70
2021/10/27 21:57:27;;;;;;;55.80;32.70;;;;;;;7.08;78.06;99649.97;235769;1198;24177;-71
2021/10/27 22:02:32;;;;;;;57.70;33.10;;;;;;;7.02;78.09;99648.19;235822;1197;25151;-70
2021/10/27 22:07:35;;;;;;;60.10;34.20;;;;;;;7.02;78.50;99642.05;235846;1192;22422;-72
2021/10/27 22:12:37;;;;;;;58.30;34.40;;;;;;;7.02;78.44;99649.17;235721;1197;22441;-72
2021/10/27 22:17:51;;;;;;;61.70;33.80;;;;;;;7.01;78.51;99648.70;235800;1198;25160;-72
2021/10/27 22:23:09;;;;;;;61.60;36.80;;;;;;;7.02;78.71;99650.00;235816;1193;22612;-70
2021/10/27 22:28:12;;;;;;;63.10;35.70;;;;;;;6.98;78.53;99655.94;235873;1198;24043;-70
2021/10/27 22:33:15;;;;;;;62.30;34.30;;;;;;;6.92;78.44;99647.81;235802;1198;25130;-72
2021/10/27 22:38:17;;;;;;;62.00;37.10;;;;;;;6.90;78.37;99641.64;235844;1197;24103;-72
2021/10/27 22:43:33;;;;;;;61.90;37.50;;;;;;;6.86;78.57;99632.11;235854;1193;25094;-70
2021/10/27 22:49:04;;;;;;;70.30;38.80;;;;;;;6.78;78.19;99628.84;235891;1198;24065;-71
2021/10/27 22:54:07;;;;;;;68.50;38.30;;;;;;;6.71;78.31;99618.91;235694;1198;25020;-72
2021/10/27 22:59:13;;;;;;;70.30;39.30;;;;;;;6.66;78.46;99616.89;235962;1198;24092;-71
2021/10/27 23:09:29;;;;;;;75.90;40.90;;;;;;;6.56;78.72;99614.73;235792;1190;22568;-71
2021/10/27 23:41:47;;;;;;;55.10;34.90;;;;;;;6.33;79.32;99604.46;235774;1198;24167;-72
2021/10/27 23:46:50;;;;;;;57.60;34.30;;;;;;;6.26;79.43;99605.08;235775;1190;22468;-70
2021/10/27 23:51:55;;;;;;;67.40;35.70;;;;;;;6.26;79.57;99609.23;235767;1190;24081;-72
2021/10/27 23:57:12;;;;;;;60.30;36.70;;;;;;;6.26;79.88;99610.40;235725;1198;23998;-73
